This is the latest recevied weather packets stored in our database for station/object KB3GVC-13. If no packets are shown the sender has not sent any weather packets the latest 10 day(s).
| Time | Temp. | Humidity | Pressure | Rain* | Wind** | Luminosity | Snow |
|---|---|---|---|---|---|---|---|
| 1777972748 | 15° C | 74% | 1011.9 hPa | 0 mm | - | - | - |
| 1777972446 | 15° C | 75% | 1011.8 hPa | 0 mm | - | - | - |
| 1777972144 | 14.44° C | 77% | 1011.8 hPa | 0 mm | - | - | - |
| 1777971842 | 14.44° C | 77% | 1011.7 hPa | 0 mm | - | - | - |
| 1777971539 | 14.44° C | 77% | 1012.1 hPa | 0 mm | - | - | - |
| 1777971237 | 13.89° C | 78% | 1012.2 hPa | 0 mm | - | - | - |
| 1777970935 | 13.33° C | 81% | 1011.8 hPa | 0 mm | - | - | - |
| 1777970632 | 13.33° C | 83% | 1012 hPa | 0 mm | - | - | - |
| 1777970330 | 12.78° C | 84% | 1012 hPa | 0 mm | - | - | - |
| 1777970027 | 12.78° C | 85% | 1011.9 hPa | 0 mm | - | - | - |
| 1777969723 | 12.78° C | 85% | 1012 hPa | 0 mm | - | - | - |
| 1777969419 | 12.78° C | 84% | 1012 hPa | 0 mm | - | - | - |
| 1777969116 | 13.33° C | 83% | 1012 hPa | 0 mm | - | - | - |
| 1777968813 | 13.33° C | 82% | 1012.1 hPa | 0 mm | - | - | - |
| 1777968510 | 13.89° C | 82% | 1012 hPa | 0 mm | - | - | - |
| 1777968206 | 13.33° C | 83% | 1012.1 hPa | 0 mm | - | - | - |
| 1777967901 | 13.33° C | 82% | 1012 hPa | 0 mm | - | - | - |
| 1777967599 | 13.89° C | 82% | 1012 hPa | 0 mm | - | - | - |
| 1777967296 | 13.89° C | 81% | 1011.9 hPa | 0 mm | - | - | - |
| 1777966993 | 13.89° C | 80% | 1012 hPa | 0 mm | - | - | - |
| 1777966691 | 14.44° C | 79% | 1012.2 hPa | 0 mm | - | - | - |
| 1777966388 | 14.44° C | 79% | 1012.1 hPa | 0 mm | - | - | - |
| 1777966085 | 15° C | 77% | 1012 hPa | 0 mm | - | - | - |
| 1777965781 | 15° C | 76% | 1012.1 hPa | 0 mm | - | - | - |
| 1777965477 | 15.56° C | 74% | 1012 hPa | 0 mm | - | - | - |
* Rain latest hour (hover to see other rain measurements)
** Current wind speed in m/s (hover to see current wind gust speed)